createdAt,value
2022-08-24T00:00:58.049Z,5.25
2022-08-24T00:04:59.766Z,5.13
2022-08-24T00:09:01.306Z,5.68
2022-08-24T00:13:02.902Z,4.82
2022-08-24T00:17:04.934Z,4.55
2022-08-24T00:21:08.126Z,4.70
2022-08-24T00:25:11.817Z,5.13
2022-08-24T00:29:17.431Z,4.78
2022-08-24T00:33:18.918Z,5.03
2022-08-24T00:37:20.468Z,4.82
2022-08-24T00:41:22.584Z,5.20
2022-08-24T00:45:27.229Z,5.13
2022-08-24T00:49:45.959Z,4.50
2022-08-24T00:53:53.005Z,5.28
2022-08-24T00:57:59.699Z,5.15
2022-08-24T01:02:15.267Z,5.22
2022-08-24T01:06:17.497Z,5.45
2022-08-24T01:10:25.823Z,5.55
2022-08-24T01:14:27.344Z,5.95
2022-08-24T01:18:47.550Z,5.47
2022-08-24T01:23:13.552Z,5.80
2022-08-24T01:27:15.593Z,5.72
2022-08-24T01:31:22.091Z,6.00
2022-08-24T01:35:24.325Z,5.22
2022-08-24T01:39:33.851Z,4.90
2022-08-24T01:43:37.397Z,5.22
2022-08-24T01:47:39.013Z,5.35
2022-08-24T01:51:42.330Z,5.03
2022-08-24T01:55:44.777Z,5.57
2022-08-24T01:59:46.252Z,5.80
2022-08-24T02:03:51.843Z,5.72
2022-08-24T02:07:53.619Z,6.00
2022-08-24T02:11:55.391Z,5.57
2022-08-24T02:15:57.436Z,5.40
2022-08-24T02:19:58.910Z,5.50
2022-08-24T02:24:00.363Z,5.68
2022-08-24T02:28:01.993Z,5.28
2022-08-24T02:32:04.702Z,5.32
2022-08-24T02:36:10.460Z,5.85
2022-08-24T02:40:28.154Z,6.55
2022-08-24T02:44:29.655Z,5.97
2022-08-24T02:48:31.114Z,6.03
2022-08-24T02:52:32.623Z,6.93
2022-08-24T02:56:34.070Z,7.88
2022-08-24T03:00:38.427Z,7.43
2022-08-24T03:04:40.872Z,9.52
2022-08-24T03:08:42.351Z,15.07
2022-08-24T03:12:50.416Z,17.33
2022-08-24T03:16:51.855Z,17.92
2022-08-24T03:20:54.843Z,20.40
2022-08-24T03:24:56.550Z,20.02
2022-08-24T03:28:59.041Z,21.23
2022-08-24T03:33:01.504Z,20.73
2022-08-24T03:37:02.997Z,23.15
2022-08-24T03:41:04.565Z,24.05
2022-08-24T03:45:06.985Z,22.38
2022-08-24T03:49:10.077Z,25.65
2022-08-24T03:53:11.735Z,23.50
2022-08-24T03:57:14.409Z,23.77
2022-08-24T04:01:17.666Z,23.10
2022-08-24T04:05:19.427Z,24.80
2022-08-24T04:09:20.892Z,23.55
2022-08-24T04:13:22.366Z,24.60
2022-08-24T04:17:23.839Z,22.30
2022-08-24T04:21:32.067Z,23.48
2022-08-24T04:25:45.220Z,26.55
2022-08-24T04:29:46.687Z,23.67
2022-08-24T04:33:53.893Z,25.08
2022-08-24T04:37:55.635Z,24.73
2022-08-24T04:41:57.548Z,25.88
2022-08-24T04:46:06.505Z,26.35
2022-08-24T04:50:08.385Z,23.13
2022-08-24T04:54:09.867Z,23.95
2022-08-24T04:58:13.461Z,22.98
2022-08-24T05:02:14.970Z,21.33
2022-08-24T05:06:18.757Z,19.98
2022-08-24T05:10:21.027Z,21.02
2022-08-24T05:14:25.667Z,18.00
2022-08-24T05:18:30.172Z,16.35
2022-08-24T05:22:31.794Z,14.73
2022-08-24T05:26:34.090Z,17.85
2022-08-24T05:30:40.594Z,17.98
2022-08-24T05:34:44.540Z,17.30
2022-08-24T05:38:47.867Z,16.33
2022-08-24T05:42:49.604Z,15.98
2022-08-24T05:46:51.377Z,15.95
2022-08-24T05:50:55.004Z,16.77
2022-08-24T05:54:59.148Z,15.10
2022-08-24T05:59:00.860Z,15.15
2022-08-24T06:03:02.473Z,15.73
2022-08-24T06:07:05.449Z,13.85
2022-08-24T06:11:06.995Z,14.20
2022-08-24T06:15:09.607Z,15.07
2022-08-24T06:19:13.867Z,15.68
2022-08-24T06:23:15.393Z,17.42
2022-08-24T06:27:23.514Z,19.30
2022-08-24T06:31:28.924Z,17.55
2022-08-24T06:35:44.847Z,17.70
2022-08-24T06:39:48.988Z,17.27
2022-08-24T06:43:57.184Z,18.90
2022-08-24T06:47:58.810Z,17.73
2022-08-24T06:52:00.361Z,18.13
2022-08-24T06:56:02.408Z,17.25
2022-08-24T07:00:05.006Z,15.70
2022-08-24T07:04:06.463Z,18.23
2022-08-24T07:08:08.144Z,18.13
2022-08-24T07:12:09.700Z,16.42
2022-08-24T07:16:11.242Z,16.63
2022-08-24T07:20:12.829Z,16.58
2022-08-24T07:24:14.395Z,16.48
2022-08-24T07:28:16.296Z,16.40
2022-08-24T07:32:18.172Z,16.40
2022-08-24T07:36:22.478Z,15.85
2022-08-24T07:40:26.949Z,15.20
2022-08-24T07:44:28.512Z,15.70
2022-08-24T07:48:32.022Z,15.07
2022-08-24T07:52:35.770Z,12.95
2022-08-24T07:56:37.216Z,14.18
2022-08-24T08:00:38.748Z,13.00
2022-08-24T08:04:41.476Z,13.10
2022-08-24T08:08:43.443Z,12.18
2022-08-24T08:12:50.237Z,12.43
2022-08-24T08:16:53.997Z,12.82
2022-08-24T08:20:55.588Z,16.17
2022-08-24T08:24:57.033Z,11.20
2022-08-24T08:28:58.472Z,10.82
2022-08-24T08:33:00.006Z,9.30
2022-08-24T08:37:03.569Z,10.55
2022-08-24T08:41:05.412Z,9.68
2022-08-24T08:45:35.352Z,9.80
2022-08-24T08:50:12.959Z,9.68
2022-08-24T08:54:30.357Z,9.63
2022-08-24T08:59:07.290Z,10.10
2022-08-24T09:03:17.356Z,9.43
2022-08-24T09:07:27.486Z,8.82
2022-08-24T09:11:41.529Z,8.65
2022-08-24T09:16:08.407Z,8.25
2022-08-24T09:20:56.087Z,7.88
2022-08-24T09:25:09.766Z,8.15
2022-08-24T09:29:13.926Z,8.63
2022-08-24T09:33:21.148Z,9.50
2022-08-24T09:37:56.196Z,8.60
2022-08-24T09:42:18.932Z,6.93
2022-08-24T09:46:43.210Z,8.13
2022-08-24T09:51:32.648Z,6.90
2022-08-24T09:55:37.274Z,7.57
2022-08-24T10:00:09.538Z,7.00
2022-08-24T10:04:36.648Z,8.05
2022-08-24T10:09:12.422Z,6.90
2022-08-24T10:13:43.253Z,7.25
2022-08-24T10:18:22.992Z,7.35
2022-08-24T10:22:49.271Z,6.82
2022-08-24T10:27:15.631Z,7.32
2022-08-24T10:31:31.822Z,6.63
2022-08-24T10:36:04.734Z,7.88
2022-08-24T10:40:10.302Z,6.90
2022-08-24T10:44:40.722Z,7.03
2022-08-24T10:48:53.576Z,7.88
2022-08-24T10:53:13.815Z,7.28
2022-08-24T10:57:26.555Z,7.70
2022-08-24T11:01:31.907Z,8.73
2022-08-24T11:05:42.074Z,8.52
2022-08-24T11:09:45.167Z,8.50
2022-08-24T11:13:59.166Z,9.02
2022-08-24T11:18:04.281Z,8.75
2022-08-24T11:22:21.469Z,8.50
2022-08-24T11:26:25.741Z,7.82
2022-08-24T11:30:29.527Z,8.50
2022-08-24T11:34:38.079Z,10.45
2022-08-24T11:38:39.504Z,8.23
2022-08-24T11:42:53.497Z,8.75
2022-08-24T11:47:03.649Z,8.93
2022-08-24T11:51:13.639Z,8.68
2022-08-24T11:55:24.577Z,7.45
2022-08-24T11:59:50.246Z,7.85
2022-08-24T12:04:29.435Z,7.03
2022-08-24T12:08:45.874Z,7.82
2022-08-24T12:13:09.360Z,6.43
2022-08-24T12:17:26.498Z,6.30
2022-08-24T12:21:34.409Z,6.93
2022-08-24T12:25:55.190Z,5.88
2022-08-24T12:30:12.309Z,5.95
2022-08-24T12:34:24.775Z,6.80
2022-08-24T12:38:33.375Z,5.63
2022-08-24T12:42:51.282Z,5.78
2022-08-24T12:46:54.480Z,6.18
2022-08-24T12:51:08.153Z,4.80
2022-08-24T12:55:35.626Z,5.80
2022-08-24T12:59:39.487Z,5.45
2022-08-24T13:03:43.825Z,5.38
2022-08-24T13:07:48.873Z,4.68
2022-08-24T13:11:50.317Z,4.65
2022-08-24T13:15:56.285Z,5.10
2022-08-24T13:20:20.026Z,5.35
2022-08-24T13:24:30.645Z,4.88
2022-08-24T13:28:48.542Z,5.40
2022-08-24T13:33:01.051Z,5.60
2022-08-24T13:37:14.212Z,5.50
2022-08-24T13:41:37.427Z,5.00
2022-08-24T13:45:42.661Z,5.47
2022-08-24T13:50:03.021Z,5.70
2022-08-24T13:54:23.940Z,6.15
2022-08-24T13:58:45.139Z,5.45
2022-08-24T14:03:18.721Z,5.70
2022-08-24T14:07:59.871Z,5.63
2022-08-24T14:12:07.313Z,5.32
2022-08-24T14:16:46.484Z,5.20
2022-08-24T14:20:54.099Z,5.20
2022-08-24T14:25:17.255Z,4.72
2022-08-24T14:29:18.642Z,4.43
2022-08-24T14:33:30.616Z,4.40
2022-08-24T14:38:05.058Z,4.50
2022-08-24T14:42:51.718Z,5.03
2022-08-24T14:47:02.339Z,4.65
2022-08-24T14:51:32.965Z,4.25
2022-08-24T14:55:53.291Z,4.00
2022-08-24T15:00:13.729Z,4.17
2022-08-24T15:04:37.841Z,4.22
2022-08-24T15:08:43.135Z,4.70
2022-08-24T15:12:51.571Z,4.28
2022-08-24T15:17:03.419Z,4.60
2022-08-24T15:21:26.729Z,5.47
2022-08-24T15:26:04.783Z,5.65
2022-08-24T15:30:20.642Z,5.00
2022-08-24T15:34:40.396Z,5.50
2022-08-24T15:38:42.406Z,6.07
2022-08-24T15:42:44.385Z,5.85
2022-08-24T15:47:00.581Z,5.68
2022-08-24T15:51:02.562Z,4.65
2022-08-24T15:55:06.460Z,5.10
2022-08-24T15:59:13.903Z,5.18
2022-08-24T16:03:48.660Z,5.80
2022-08-24T16:08:02.391Z,5.13
2022-08-24T16:12:12.720Z,4.68
2022-08-24T16:16:16.794Z,5.32
2022-08-24T16:20:24.596Z,5.13
2022-08-24T16:24:28.608Z,4.22
2022-08-24T16:28:36.042Z,4.07
2022-08-24T16:32:54.026Z,4.28
2022-08-24T16:36:56.714Z,3.73
2022-08-24T16:41:00.623Z,4.18
2022-08-24T16:45:04.604Z,3.78
2022-08-24T16:49:12.566Z,4.20
2022-08-24T16:53:14.301Z,5.45
2022-08-24T16:57:19.687Z,3.72
2022-08-24T17:01:21.293Z,4.82
2022-08-24T17:05:23.727Z,4.85
2022-08-24T17:09:25.292Z,4.28
2022-08-24T17:13:48.390Z,4.22
2022-08-24T17:17:56.302Z,3.97
2022-08-24T17:21:57.873Z,4.75
2022-08-24T17:26:00.230Z,5.15
2022-08-24T17:30:04.041Z,3.72
2022-08-24T17:34:08.023Z,4.65
2022-08-24T17:38:09.535Z,3.90
2022-08-24T17:42:33.736Z,6.05
2022-08-24T17:46:32.995Z,8.95
2022-08-24T17:50:35.695Z,3.90
2022-08-24T17:54:37.186Z,4.38
2022-08-24T17:58:58.654Z,4.38
2022-08-24T18:03:00.160Z,4.93
2022-08-24T18:07:06.651Z,5.03
2022-08-24T18:11:13.119Z,4.53
2022-08-24T18:15:14.716Z,5.07
2022-08-24T18:19:16.371Z,4.22
2022-08-24T18:23:21.220Z,4.30
2022-08-24T18:27:29.841Z,5.80
2022-08-24T18:31:31.712Z,4.97
2022-08-24T18:35:34.512Z,6.80
2022-08-24T18:39:36.550Z,4.60
2022-08-24T18:43:38.245Z,4.60
2022-08-24T18:47:40.111Z,4.95
2022-08-24T18:51:43.007Z,4.28
2022-08-24T18:55:46.302Z,4.43
2022-08-24T18:59:47.913Z,4.50
2022-08-24T19:03:50.366Z,4.90
2022-08-24T19:07:53.259Z,5.45
2022-08-24T19:11:54.830Z,5.13
2022-08-24T19:15:58.180Z,6.15
2022-08-24T19:19:59.728Z,6.57
2022-08-24T19:24:02.493Z,6.40
2022-08-24T19:28:06.246Z,5.85
2022-08-24T19:32:13.880Z,7.22
2022-08-24T19:36:23.811Z,5.35
2022-08-24T19:40:25.355Z,5.47
2022-08-24T19:44:51.999Z,5.22
2022-08-24T19:48:54.027Z,5.53
2022-08-24T19:52:58.498Z,5.68
2022-08-24T19:57:01.044Z,5.80
2022-08-24T20:01:11.598Z,5.35
2022-08-24T20:05:13.587Z,5.10
2022-08-24T20:09:15.119Z,5.47
2022-08-24T20:13:17.056Z,5.55
2022-08-24T20:17:18.517Z,5.35
2022-08-24T20:21:29.803Z,5.38
2022-08-24T20:25:33.882Z,5.22
2022-08-24T20:29:35.381Z,5.53
2022-08-24T20:33:36.971Z,4.82
2022-08-24T20:37:41.303Z,5.78
2022-08-24T20:41:42.761Z,5.80
2022-08-24T20:45:45.376Z,4.72
2022-08-24T20:49:47.899Z,4.88
2022-08-24T20:53:49.353Z,5.20
2022-08-24T20:57:55.881Z,5.00
2022-08-24T21:01:57.345Z,6.22
2022-08-24T21:05:59.330Z,5.03
2022-08-24T21:10:00.979Z,5.43
2022-08-24T21:14:06.023Z,4.80
2022-08-24T21:18:07.583Z,5.35
2022-08-24T21:22:09.489Z,4.57
2022-08-24T21:26:14.177Z,5.07
2022-08-24T21:30:19.543Z,5.68
2022-08-24T21:34:39.710Z,4.95
2022-08-24T21:38:44.701Z,4.90
2022-08-24T21:42:47.010Z,5.60
2022-08-24T21:46:50.458Z,5.13
2022-08-24T21:50:52.051Z,5.10
2022-08-24T21:54:56.289Z,5.10
2022-08-24T21:58:58.783Z,5.55
2022-08-24T22:03:00.501Z,5.43
2022-08-24T22:07:02.437Z,5.78
2022-08-24T22:11:05.100Z,6.05
2022-08-24T22:15:09.076Z,5.47
2022-08-24T22:19:11.790Z,4.97
2022-08-24T22:23:13.396Z,5.60
2022-08-24T22:27:14.876Z,6.00
2022-08-24T22:31:35.949Z,5.65
2022-08-24T22:35:44.765Z,6.65
2022-08-24T22:39:47.052Z,5.82
2022-08-24T22:44:07.918Z,5.60
2022-08-24T22:48:09.584Z,5.22
2022-08-24T22:52:12.981Z,5.13
2022-08-24T22:56:17.240Z,5.43
2022-08-24T23:00:19.035Z,5.07
2022-08-24T23:04:23.871Z,5.78
2022-08-24T23:08:25.384Z,6.22
2022-08-24T23:12:28.484Z,5.55
2022-08-24T23:16:32.098Z,5.53
2022-08-24T23:20:33.568Z,5.80
2022-08-24T23:24:35.902Z,5.72
2022-08-24T23:28:37.469Z,6.72
2022-08-24T23:32:40.118Z,6.47
2022-08-24T23:36:43.095Z,6.97
2022-08-24T23:40:44.764Z,7.40
2022-08-24T23:44:46.868Z,7.30
2022-08-24T23:48:55.463Z,6.70
2022-08-24T23:52:57.716Z,6.15
2022-08-24T23:56:59.186Z,6.53
